Time;durP1;ratioP1;P1;durP2;ratioP2;P2;SDS_P1;SDS_P2;PMS_P1;PMS_P2;Temp;Humidity;BMP_temperature;BMP_pressure;BME280_temperature;BME280_humidity;BME280_pressure;Samples;Min_cycle;Max_cycle;Signal;HPM_P1;HPM_P2
2021/08/20 00:00:57;;;;;;;6.38;5.78;;;;;;;17.02;100.00;100660.06;5025435;28;20054;-80
2021/08/20 00:03:25;;;;;;;6.85;5.35;;;;;;;17.13;100.00;100660.84;5026170;28;20147;-80
2021/08/20 00:05:52;;;;;;;5.68;5.10;;;;;;;17.09;100.00;100661.25;5037781;28;20077;-80
2021/08/20 00:08:19;;;;;;;6.78;5.28;;;;;;;17.08;100.00;100655.09;5019075;28;20087;-79
2021/08/20 00:10:48;;;;;;;6.38;5.38;;;;;;;17.10;100.00;100657.59;5031889;28;20049;-80
2021/08/20 00:13:16;;;;;;;4.93;4.45;;;;;;;17.00;100.00;100654.88;4989632;28;20136;-82
2021/08/20 00:15:45;;;;;;;7.22;4.95;;;;;;;17.13;100.00;100647.53;5019408;28;20132;-79
2021/08/20 00:18:12;;;;;;;5.32;4.65;;;;;;;17.23;100.00;100655.56;5031036;28;20516;-79
2021/08/20 00:20:40;;;;;;;5.47;4.90;;;;;;;17.18;100.00;100655.97;5011743;28;20421;-80
2021/08/20 00:23:08;;;;;;;5.75;5.15;;;;;;;17.21;100.00;100657.53;5019517;28;20041;-79
2021/08/20 00:25:35;;;;;;;7.28;5.75;;;;;;;17.20;100.00;100656.69;5027843;28;20041;-79
2021/08/20 00:28:03;;;;;;;6.78;4.80;;;;;;;17.21;100.00;100661.03;5023073;28;20137;-79
2021/08/20 00:30:31;;;;;;;7.13;5.47;;;;;;;17.20;100.00;100659.34;5011909;28;20265;-80
2021/08/20 00:32:59;;;;;;;9.68;5.85;;;;;;;17.23;100.00;100657.38;5006600;28;20104;-79
2021/08/20 00:35:26;;;;;;;7.50;6.50;;;;;;;17.18;100.00;100665.78;5032235;28;20096;-81
2021/08/20 00:37:53;;;;;;;6.93;6.00;;;;;;;17.21;100.00;100655.72;5007749;28;20077;-80
2021/08/20 00:40:20;;;;;;;7.97;5.93;;;;;;;17.15;100.00;100653.56;5031002;28;20128;-80
2021/08/20 00:42:48;;;;;;;9.27;5.95;;;;;;;17.14;100.00;100659.03;4987790;28;20174;-79
2021/08/20 00:45:16;;;;;;;9.93;6.47;;;;;;;16.94;100.00;100650.09;5022620;28;20089;-81
2021/08/20 00:47:44;;;;;;;9.40;6.80;;;;;;;16.99;100.00;100653.22;5006859;28;20125;-80
2021/08/20 00:50:12;;;;;;;7.22;6.18;;;;;;;17.09;100.00;100640.81;5015557;28;20080;-79
2021/08/20 00:52:39;;;;;;;8.55;5.90;;;;;;;16.97;100.00;100644.50;4987673;28;20052;-78
2021/08/20 00:55:09;;;;;;;7.03;5.50;;;;;;;17.00;100.00;100648.72;5030324;28;20069;-79
2021/08/20 00:57:36;;;;;;;6.40;5.75;;;;;;;17.08;100.00;100646.25;5006975;28;20063;-79
2021/08/20 01:00:04;;;;;;;8.40;6.15;;;;;;;17.03;100.00;100646.66;5020815;28;20037;-80
2021/08/20 01:02:32;;;;;;;5.50;5.00;;;;;;;17.02;100.00;100644.97;5002481;28;20045;-80
2021/08/20 01:04:59;;;;;;;6.88;5.55;;;;;;;17.04;100.00;100647.50;5036221;28;20124;-79
2021/08/20 01:07:28;;;;;;;6.72;5.30;;;;;;;17.09;100.00;100651.44;5010507;28;20125;-79
2021/08/20 01:09:55;;;;;;;6.38;4.82;;;;;;;17.02;100.00;100642.31;5029563;28;20129;-78
2021/08/20 01:12:22;;;;;;;5.80;5.20;;;;;;;17.00;100.00;100638.09;5029500;28;20185;-79
2021/08/20 01:14:50;;;;;;;6.47;4.85;;;;;;;17.00;100.00;100649.56;5019454;28;20055;-80
2021/08/20 01:17:18;;;;;;;5.30;4.70;;;;;;;17.03;100.00;100651.97;5030492;28;20044;-79
2021/08/20 01:19:47;;;;;;;6.43;5.35;;;;;;;16.93;100.00;100651.94;4991149;28;20050;-79
2021/08/20 01:22:15;;;;;;;6.60;5.28;;;;;;;16.81;100.00;100654.78;5027832;28;20049;-80
2021/08/20 01:24:42;;;;;;;6.60;5.32;;;;;;;16.71;100.00;100655.53;5032392;28;20139;-80
2021/08/20 01:27:09;;;;;;;6.60;4.85;;;;;;;16.48;100.00;100653.94;4992014;28;20113;-82
2021/08/20 01:29:36;;;;;;;7.82;5.57;;;;;;;16.28;100.00;100654.75;5031823;28;20467;-81
2021/08/20 01:32:04;;;;;;;14.48;6.07;;;;;;;16.28;100.00;100658.25;5000747;28;20132;-81
2021/08/20 01:34:31;;;;;;;5.80;4.75;;;;;;;16.27;100.00;100653.91;5034058;28;20061;-79
2021/08/20 01:36:59;;;;;;;7.72;6.22;;;;;;;16.25;100.00;100653.16;5029962;28;20129;-79
2021/08/20 01:39:26;;;;;;;6.68;5.75;;;;;;;16.25;100.00;100654.97;5016350;28;20037;-79
2021/08/20 01:41:54;;;;;;;8.65;6.30;;;;;;;16.16;100.00;100654.75;5021046;28;20140;-80
2021/08/20 01:44:21;;;;;;;6.90;4.97;;;;;;;16.20;100.00;100650.88;5031415;28;20136;-80
2021/08/20 01:46:48;;;;;;;8.15;5.72;;;;;;;16.20;100.00;100661.50;4990589;28;20430;-80
2021/08/20 01:49:17;;;;;;;7.28;5.53;;;;;;;16.23;100.00;100657.78;4974898;28;20046;-80
2021/08/20 01:51:44;;;;;;;7.00;5.63;;;;;;;16.15;100.00;100652.25;5007979;28;20126;-81
2021/08/20 01:54:11;;;;;;;8.55;5.55;;;;;;;16.25;100.00;100652.31;5041855;28;20037;-80
2021/08/20 01:56:39;;;;;;;8.98;6.53;;;;;;;16.28;100.00;100655.59;5032178;28;20077;-80
2021/08/20 01:59:06;;;;;;;7.68;6.13;;;;;;;16.32;100.00;100657.03;5035260;28;20068;-80
2021/08/20 02:01:35;;;;;;;7.90;6.00;;;;;;;16.10;100.00;100649.97;5008280;28;20111;-81
2021/08/20 02:04:03;;;;;;;8.18;5.93;;;;;;;16.10;100.00;100655.28;5018496;28;20107;-81
2021/08/20 02:06:32;;;;;;;6.43;5.00;;;;;;;16.20;100.00;100655.38;5030969;28;20103;-81
2021/08/20 02:08:59;;;;;;;7.22;5.38;;;;;;;16.18;100.00;100657.31;5027768;28;20153;-81
2021/08/20 02:11:26;;;;;;;8.05;5.38;;;;;;;16.19;100.00;100653.69;5012178;28;20041;-82
2021/08/20 02:13:54;;;;;;;8.32;4.68;;;;;;;16.36;100.00;100660.28;5023778;28;20140;-80
2021/08/20 02:16:21;;;;;;;5.63;4.75;;;;;;;16.34;100.00;100654.22;5013611;28;20137;-80
2021/08/20 02:18:48;;;;;;;5.93;5.32;;;;;;;16.37;100.00;100654.81;5010777;28;20406;-81
2021/08/20 02:21:15;;;;;;;4.60;4.10;;;;;;;16.37;100.00;100653.97;5034578;28;20056;-80
2021/08/20 02:23:43;;;;;;;7.82;4.97;;;;;;;16.53;100.00;100654.41;5021478;28;20096;-79
2021/08/20 02:26:14;;;;;;;5.63;4.15;;;;;;;16.42;100.00;100665.91;5019345;28;20157;-80
2021/08/20 02:28:41;;;;;;;5.85;4.47;;;;;;;16.34;100.00;100664.84;5025775;28;20053;-81
2021/08/20 02:31:08;;;;;;;6.45;5.10;;;;;;;16.37;100.00;100665.44;5017281;28;20087;-79
2021/08/20 02:33:40;;;;;;;5.68;4.20;;;;;;;16.42;100.00;100662.41;5011751;28;20063;-80
2021/08/20 02:36:08;;;;;;;4.85;4.32;;;;;;;16.41;100.00;100658.06;5014066;28;20547;-80
2021/08/20 02:38:35;;;;;;;5.93;4.68;;;;;;;16.42;100.00;100665.06;5032630;28;20037;-80
2021/08/20 02:41:03;;;;;;;6.13;4.85;;;;;;;16.43;100.00;100662.28;5030310;28;20085;-80
2021/08/20 02:43:30;;;;;;;4.82;4.32;;;;;;;16.49;100.00;100663.59;5012966;28;20393;-79
2021/08/20 02:45:57;;;;;;;6.78;4.53;;;;;;;16.55;100.00;100660.41;5025479;28;20042;-79
2021/08/20 02:48:25;;;;;;;5.53;4.45;;;;;;;16.62;100.00;100660.78;5002976;28;20120;-80
2021/08/20 02:50:52;;;;;;;6.65;4.47;;;;;;;16.59;100.00;100656.53;5021991;28;20049;-80
2021/08/20 02:53:19;;;;;;;4.88;3.70;;;;;;;16.58;100.00;100659.34;5029141;28;20140;-81
2021/08/20 02:55:47;;;;;;;7.13;4.90;;;;;;;16.52;100.00;100658.00;5030158;28;20140;-80
2021/08/20 02:58:14;;;;;;;7.10;4.85;;;;;;;16.49;100.00;100652.13;5015925;28;21682;-80
2021/08/20 03:00:41;;;;;;;7.13;5.07;;;;;;;16.56;100.00;100655.94;5011997;28;20049;-80
2021/08/20 03:03:11;;;;;;;9.32;4.90;;;;;;;16.66;100.00;100654.19;5002758;28;20062;-79
2021/08/20 03:05:38;;;;;;;8.52;5.15;;;;;;;16.65;100.00;100664.00;5028233;28;20114;-79
2021/08/20 03:08:06;;;;;;;6.55;5.60;;;;;;;16.69;100.00;100653.94;5028796;28;20426;-82
2021/08/20 03:10:33;;;;;;;6.20;5.07;;;;;;;16.71;100.00;100647.53;5015711;28;20084;-80
2021/08/20 03:13:00;;;;;;;8.32;5.60;;;;;;;16.60;100.00;100655.56;5002656;28;20512;-81
2021/08/20 03:15:28;;;;;;;8.45;5.57;;;;;;;16.43;100.00;100651.66;5011817;28;20075;-79
2021/08/20 03:17:55;;;;;;;8.98;5.70;;;;;;;16.52;100.00;100655.34;5016204;28;20424;-80
2021/08/20 03:20:24;;;;;;;9.10;6.05;;;;;;;16.57;100.00;100657.63;5024432;28;20086;-80
2021/08/20 03:22:51;;;;;;;7.57;6.07;;;;;;;16.46;100.00;100654.06;5022645;28;20037;-79
2021/08/20 03:25:19;;;;;;;8.88;6.35;;;;;;;16.56;100.00;100658.59;5030268;28;20057;-80
2021/08/20 03:27:46;;;;;;;10.30;6.20;;;;;;;16.52;100.00;100660.66;5028846;28;20118;-80
2021/08/20 03:30:14;;;;;;;17.83;6.68;;;;;;;16.54;100.00;100665.88;5035008;28;20049;-79
2021/08/20 03:32:42;;;;;;;7.15;6.03;;;;;;;16.54;100.00;100660.56;5037011;28;20037;-80
2021/08/20 03:35:09;;;;;;;6.88;6.10;;;;;;;16.57;100.00;100671.78;5032644;28;20120;-81
2021/08/20 03:37:40;;;;;;;15.27;8.88;;;;;;;16.49;100.00;100668.06;5034202;28;20109;-81
2021/08/20 03:40:09;;;;;;;10.40;7.50;;;;;;;16.43;100.00;100667.59;4989878;28;20160;-81
2021/08/20 03:42:36;;;;;;;8.70;6.70;;;;;;;16.41;100.00;100661.56;5040390;28;20162;-79
2021/08/20 03:45:04;;;;;;;9.18;7.15;;;;;;;16.41;100.00;100664.22;5032295;28;20126;-80
2021/08/20 03:47:31;;;;;;;11.00;6.50;;;;;;;16.41;100.00;100668.69;5006470;28;20131;-80
2021/08/20 03:49:59;;;;;;;9.30;6.82;;;;;;;16.52;100.00;100673.97;5028711;28;20049;-81
2021/08/20 03:52:26;;;;;;;10.98;6.78;;;;;;;16.48;100.00;100669.91;5029961;28;20051;-79
2021/08/20 03:54:55;;;;;;;9.13;6.40;;;;;;;16.40;100.00;100665.22;5008615;28;20769;-80
2021/08/20 03:57:23;;;;;;;11.45;6.95;;;;;;;16.52;100.00;100667.81;5028280;28;20064;-80
2021/08/20 03:59:51;;;;;;;9.55;6.80;;;;;;;16.55;100.00;100671.06;5021897;28;20104;-81
2021/08/20 04:02:19;;;;;;;7.72;6.60;;;;;;;16.50;100.00;100665.28;5002903;28;20065;-80
2021/08/20 04:04:46;;;;;;;10.45;7.65;;;;;;;16.44;100.00;100661.31;5000508;28;20050;-79
2021/08/20 04:07:19;;;;;;;10.05;7.38;;;;;;;16.35;100.00;100664.75;5028117;28;20172;-80
2021/08/20 04:09:49;;;;;;;11.98;7.28;;;;;;;16.25;100.00;100671.75;5030553;28;20057;-81
2021/08/20 04:12:19;;;;;;;10.73;7.25;;;;;;;16.27;100.00;100666.34;5029924;28;20323;-80
2021/08/20 04:14:46;;;;;;;8.40;6.60;;;;;;;16.28;100.00;100670.69;5026552;28;20160;-80
2021/08/20 04:17:13;;;;;;;11.30;7.70;;;;;;;16.42;100.00;100676.53;5020463;28;20140;-82
2021/08/20 04:19:41;;;;;;;8.55;6.50;;;;;;;16.45;100.00;100668.31;5023746;28;20132;-81
2021/08/20 04:22:08;;;;;;;11.73;7.25;;;;;;;16.44;100.00;100671.97;5016794;28;20502;-80
2021/08/20 04:24:36;;;;;;;9.55;7.43;;;;;;;16.49;100.00;100682.19;5008706;28;20132;-80
2021/08/20 04:27:03;;;;;;;10.80;7.28;;;;;;;16.43;100.00;100675.56;5033823;28;20037;-81
2021/08/20 04:29:31;;;;;;;12.15;6.88;;;;;;;16.43;100.00;100670.25;5039884;28;20050;-80
2021/08/20 04:31:59;;;;;;;7.22;6.20;;;;;;;16.49;100.00;100673.38;5026741;28;20358;-79
2021/08/20 04:34:26;;;;;;;8.13;6.55;;;;;;;16.61;100.00;100682.97;5027722;28;20050;-83
2021/08/20 04:36:54;;;;;;;9.10;6.75;;;;;;;16.54;100.00;100674.69;5019326;28;20978;-79
2021/08/20 04:39:23;;;;;;;7.40;6.35;;;;;;;16.57;100.00;100673.56;5025981;28;20121;-80
2021/08/20 04:41:51;;;;;;;8.30;6.65;;;;;;;16.52;100.00;100679.28;5032127;28;20085;-85
2021/08/20 04:44:18;;;;;;;10.15;6.78;;;;;;;16.57;100.00;100679.75;5016533;28;20437;-80
2021/08/20 04:46:45;;;;;;;10.85;7.18;;;;;;;16.65;100.00;100685.25;5025815;28;20110;-80
2021/08/20 04:49:13;;;;;;;10.60;6.95;;;;;;;16.67;100.00;100682.50;5032384;28;20050;-79
2021/08/20 04:51:41;;;;;;;13.90;8.05;;;;;;;16.66;100.00;100691.41;5023826;28;20863;-80
2021/08/20 04:54:15;;;;;;;12.48;7.70;;;;;;;16.81;100.00;100689.34;4995522;28;20600;-84
2021/08/20 04:56:46;;;;;;;21.17;8.10;;;;;;;16.81;100.00;100689.34;5018738;28;20115;-80
2021/08/20 04:59:13;;;;;;;11.55;8.07;;;;;;;16.77;100.00;100688.75;5028932;28;20057;-78
2021/08/20 05:01:41;;;;;;;12.82;7.38;;;;;;;16.65;100.00;100684.41;5021373;28;20129;-79
2021/08/20 05:04:11;;;;;;;14.02;9.18;;;;;;;16.55;100.00;100686.16;4986740;28;20046;-81
2021/08/20 05:06:42;;;;;;;17.98;10.52;;;;;;;16.42;100.00;100692.47;5018404;28;20082;-80
2021/08/20 05:09:11;;;;;;;19.33;10.57;;;;;;;16.20;100.00;100689.91;5019269;28;20212;-80
2021/08/20 05:11:41;;;;;;;23.67;11.70;;;;;;;16.29;100.00;100691.78;5025161;28;20136;-79
2021/08/20 05:14:08;;;;;;;13.88;7.63;;;;;;;16.14;100.00;100685.94;5031571;28;20500;-79
2021/08/20 05:16:38;;;;;;;12.02;9.63;;;;;;;15.90;100.00;100695.88;5023667;28;20763;-80
2021/08/20 05:19:06;;;;;;;14.18;9.52;;;;;;;15.72;100.00;100686.75;5003743;28;20136;-78
2021/08/20 05:21:35;;;;;;;16.50;11.07;;;;;;;15.75;100.00;100684.66;4983482;28;20144;-78
2021/08/20 05:24:03;;;;;;;13.20;9.45;;;;;;;15.74;100.00;100682.13;4966552;28;20042;-80
2021/08/20 05:26:30;;;;;;;13.90;9.88;;;;;;;15.72;100.00;100687.59;5019399;28;20121;-81
2021/08/20 05:28:58;;;;;;;12.18;10.63;;;;;;;15.72;100.00;100694.69;5021029;28;20192;-79
2021/08/20 05:31:25;;;;;;;14.13;9.98;;;;;;;15.65;100.00;100696.97;4992619;28;20049;-79
2021/08/20 05:33:53;;;;;;;14.90;9.95;;;;;;;15.69;100.00;100695.78;5001297;28;20053;-77
2021/08/20 05:36:20;;;;;;;13.45;9.75;;;;;;;15.81;100.00;100702.78;5028263;28;20136;-78
2021/08/20 05:38:47;;;;;;;14.50;11.25;;;;;;;15.88;100.00;100700.47;5024968;28;20124;-78
2021/08/20 05:41:14;;;;;;;11.80;9.95;;;;;;;15.94;100.00;100710.59;5030459;28;20137;-79
2021/08/20 05:43:41;;;;;;;14.32;11.02;;;;;;;15.95;100.00;100707.81;5001088;28;20076;-77
2021/08/20 05:46:09;;;;;;;14.68;9.88;;;;;;;16.07;100.00;100708.63;5011417;28;20080;-78
2021/08/20 05:48:37;;;;;;;15.55;10.82;;;;;;;16.15;100.00;100713.34;5009524;28;20046;-78
2021/08/20 05:51:04;;;;;;;18.55;10.75;;;;;;;16.22;100.00;100703.06;5022151;28;20520;-78
2021/08/20 05:53:32;;;;;;;12.70;9.57;;;;;;;16.37;100.00;100712.44;5024241;28;20053;-82
2021/08/20 05:55:59;;;;;;;14.40;10.57;;;;;;;16.60;100.00;100708.72;5010810;28;20045;-81
2021/08/20 05:58:26;;;;;;;13.32;9.77;;;;;;;16.69;100.00;100707.94;5024843;28;20073;-82
2021/08/20 06:00:54;;;;;;;13.40;9.38;;;;;;;16.81;100.00;100710.59;5023206;28;20129;-78
2021/08/20 06:03:22;;;;;;;16.05;10.45;;;;;;;16.80;100.00;100708.94;4999187;28;20374;-78
2021/08/20 06:05:49;;;;;;;18.65;9.70;;;;;;;16.67;100.00;100704.59;5021450;28;20103;-77
2021/08/20 06:08:17;;;;;;;17.50;10.90;;;;;;;16.51;100.00;100708.63;5022073;28;20053;-78
2021/08/20 06:10:45;;;;;;;16.58;10.30;;;;;;;16.76;100.00;100704.84;5028393;28;20045;-78
2021/08/20 06:13:12;;;;;;;17.63;9.68;;;;;;;16.79;100.00;100700.09;5009838;28;20059;-76
2021/08/20 06:15:40;;;;;;;15.07;9.48;;;;;;;16.88;100.00;100709.94;5011495;28;20312;-77
2021/08/20 06:18:07;;;;;;;22.58;11.50;;;;;;;17.20;100.00;100707.25;5016776;28;20049;-77
2021/08/20 06:20:34;;;;;;;17.30;10.77;;;;;;;17.53;100.00;100705.31;5022314;28;20525;-77
2021/08/20 06:23:05;;;;;;;16.70;11.25;;;;;;;17.68;100.00;100711.09;5026608;28;20055;-78
2021/08/20 06:25:33;;;;;;;19.23;10.70;;;;;;;18.01;100.00;100712.63;5025380;28;20053;-78
2021/08/20 06:28:01;;;;;;;18.25;11.30;;;;;;;18.00;100.00;100715.44;5005278;28;20453;-81
2021/08/20 06:30:31;;;;;;;18.90;11.75;;;;;;;17.85;100.00;100713.16;5026547;28;20100;-78
2021/08/20 06:33:06;;;;;;;18.48;10.82;;;;;;;17.83;100.00;100720.47;5098872;27;21007;-62
2021/08/20 06:35:33;;;;;;;14.85;11.60;;;;;;;18.16;100.00;100723.78;5101831;27;20075;-62
2021/08/20 06:38:01;;;;;;;18.33;12.70;;;;;;;18.39;98.32;100719.03;5091570;28;20417;-63
2021/08/20 06:40:28;;;;;;;16.58;12.55;;;;;;;18.55;97.70;100716.69;5100021;28;20063;-64
2021/08/20 06:42:55;;;;;;;15.98;13.20;;;;;;;18.76;96.15;100713.06;5093006;28;20136;-64
2021/08/20 06:45:22;;;;;;;18.00;12.00;;;;;;;19.04;95.22;100714.00;5089058;28;20159;-63
2021/08/20 06:47:49;;;;;;;18.08;13.40;;;;;;;19.44;91.01;100709.25;5093002;28;20123;-62
2021/08/20 06:50:16;;;;;;;28.60;14.50;;;;;;;19.79;87.79;100698.91;5090169;28;20052;-63
2021/08/20 06:52:44;;;;;;;21.55;15.23;;;;;;;20.17;85.66;100695.16;5089065;28;20028;-64
2021/08/20 06:55:11;;;;;;;19.23;14.75;;;;;;;20.21;84.09;100702.72;5092204;28;20174;-62
2021/08/20 06:57:38;;;;;;;21.05;14.43;;;;;;;20.20;83.96;100706.41;5087999;28;20083;-63
2021/08/20 07:00:06;;;;;;;24.30;14.73;;;;;;;20.01;84.26;100703.00;5090378;28;20127;-65
2021/08/20 07:02:41;;;;;;;17.67;13.38;;;;;;;19.79;85.41;100710.44;5090782;28;20044;-63
2021/08/20 07:05:09;;;;;;;17.98;14.63;;;;;;;19.75;85.40;100702.88;5093005;28;20142;-63
2021/08/20 07:07:36;;;;;;;25.85;16.58;;;;;;;19.79;85.46;100704.25;5089033;28;20052;-64
2021/08/20 07:10:11;;;;;;;28.50;18.23;;;;;;;19.77;83.50;100707.06;5095193;28;20477;-63
2021/08/20 07:12:39;;;;;;;23.17;16.92;;;;;;;19.61;84.10;100699.69;5093218;28;20097;-63
2021/08/20 07:15:09;;;;;;;21.65;17.38;;;;;;;19.36;84.52;100713.66;5089115;28;20131;-62
2021/08/20 07:17:36;;;;;;;20.50;16.67;;;;;;;19.32;84.74;100720.25;5087711;28;20071;-65
2021/08/20 07:20:04;;;;;;;21.30;17.38;;;;;;;19.33;84.82;100722.81;5093014;28;20071;-64
2021/08/20 07:22:32;;;;;;;29.15;18.13;;;;;;;19.59;83.29;100719.50;5087385;28;20183;-63
2021/08/20 07:25:00;;;;;;;24.45;17.70;;;;;;;19.86;81.21;100719.56;5097781;28;20052;-62
2021/08/20 07:27:27;;;;;;;19.83;16.50;;;;;;;19.54;80.46;100708.38;5089424;28;20056;-62
2021/08/20 07:29:54;;;;;;;23.92;16.85;;;;;;;19.56;80.18;100722.44;5088291;28;20514;-63
2021/08/20 07:32:21;;;;;;;18.92;16.27;;;;;;;19.78;78.56;100715.94;5085978;28;20044;-65
2021/08/20 07:34:49;;;;;;;23.13;16.48;;;;;;;19.35;80.59;100725.31;5098662;28;20048;-64
2021/08/20 07:37:16;;;;;;;20.30;16.58;;;;;;;19.54;80.66;100717.22;5086673;28;20086;-64
2021/08/20 07:39:43;;;;;;;24.05;16.90;;;;;;;19.63;79.86;100718.22;5097539;28;20050;-63
2021/08/20 07:42:10;;;;;;;21.60;17.30;;;;;;;19.59;79.36;100720.34;5085296;28;20175;-64
2021/08/20 07:44:37;;;;;;;19.88;17.77;;;;;;;19.36;79.62;100716.31;5074966;28;20131;-62
2021/08/20 07:47:05;;;;;;;24.50;18.85;;;;;;;19.27;79.72;100733.19;5078856;28;20052;-64
2021/08/20 07:49:32;;;;;;;22.95;18.95;;;;;;;18.73;81.70;100735.50;5077150;28;20048;-63
2021/08/20 07:52:01;;;;;;;22.27;18.00;;;;;;;18.67;82.35;100731.53;5064057;28;20048;-62
2021/08/20 07:54:28;;;;;;;25.35;17.38;;;;;;;18.64;83.67;100723.84;5071323;28;20048;-62
2021/08/20 07:56:55;;;;;;;21.55;17.23;;;;;;;18.86;82.07;100733.38;5077464;28;20056;-63
2021/08/20 07:59:22;;;;;;;20.40;13.35;;;;;;;18.34;83.31;100747.94;5075378;28;20144;-63
2021/08/20 08:01:50;;;;;;;11.63;9.60;;;;;;;17.62;87.63;100749.75;5075150;28;20478;-62
2021/08/20 08:04:17;;;;;;;11.50;8.98;;;;;;;17.05;92.51;100759.06;5083446;28;20050;-64
2021/08/20 08:06:45;;;;;;;14.52;10.13;;;;;;;16.93;93.42;100757.41;5076043;28;20464;-64
2021/08/20 08:09:12;;;;;;;14.35;9.52;;;;;;;16.82;94.54;100760.97;5075360;28;20120;-61
2021/08/20 08:11:39;;;;;;;13.25;9.70;;;;;;;16.90;93.62;100761.19;5070682;28;20075;-63
2021/08/20 08:14:06;;;;;;;10.75;8.73;;;;;;;17.48;90.90;100755.44;5079546;28;20177;-63
2021/08/20 08:16:37;;;;;;;11.88;8.25;;;;;;;18.00;87.47;100758.91;5070004;28;20459;-63
2021/08/20 08:19:06;;;;;;;11.07;8.02;;;;;;;18.10;84.18;100764.25;5080857;28;20129;-63
2021/08/20 08:21:33;;;;;;;9.82;6.97;;;;;;;18.05;83.93;100763.84;5072697;28;20048;-63
2021/08/20 08:24:00;;;;;;;10.20;7.38;;;;;;;18.07;82.95;100769.88;5072973;28;20045;-62
2021/08/20 08:26:28;;;;;;;12.48;8.43;;;;;;;17.88;83.35;100766.16;5078600;28;20282;-64
2021/08/20 08:28:55;;;;;;;10.18;7.43;;;;;;;17.96;83.15;100774.31;5073339;28;20147;-64
2021/08/20 08:31:23;;;;;;;17.42;8.68;;;;;;;18.00;82.16;100774.88;5081254;28;20082;-64
2021/08/20 08:33:51;;;;;;;11.77;8.07;;;;;;;17.93;83.95;100769.28;5075678;28;20116;-63
2021/08/20 08:36:19;;;;;;;12.20;7.55;;;;;;;17.68;85.16;100769.69;5072823;28;20097;-63
2021/08/20 08:38:46;;;;;;;19.05;8.50;;;;;;;17.48;85.59;100776.72;5073796;28;20123;-63
2021/08/20 08:41:14;;;;;;;17.10;8.57;;;;;;;17.51;86.12;100776.44;5085314;28;20050;-62
2021/08/20 08:43:42;;;;;;;12.88;8.20;;;;;;;17.75;85.74;100783.34;5077583;28;20135;-61
2021/08/20 08:46:12;;;;;;;12.90;8.60;;;;;;;17.63;84.66;100788.72;5076984;28;20265;-63
2021/08/20 08:48:40;;;;;;;11.25;7.70;;;;;;;17.55;84.66;100795.66;5076815;28;20056;-62
2021/08/20 08:51:09;;;;;;;13.10;8.85;;;;;;;17.45;84.62;100796.44;5078287;28;20044;-62
2021/08/20 08:53:37;;;;;;;13.38;8.55;;;;;;;17.47;84.64;100788.31;5069583;28;20044;-63
2021/08/20 08:56:04;;;;;;;16.50;9.57;;;;;;;17.57;83.77;100797.22;5080308;28;20053;-63
2021/08/20 08:58:31;;;;;;;11.70;8.43;;;;;;;17.55;83.80;100795.66;5076984;28;20444;-62
2021/08/20 09:00:59;;;;;;;13.55;9.23;;;;;;;17.72;83.37;100803.91;5087448;28;20167;-67
2021/08/20 09:03:28;;;;;;;16.15;9.05;;;;;;;17.81;83.44;100802.28;5081660;28;20478;-67
2021/08/20 09:05:58;;;;;;;17.63;9.50;;;;;;;18.12;81.46;100818.28;5074470;28;20105;-66
2021/08/20 09:08:27;;;;;;;14.52;9.95;;;;;;;18.17;81.30;100824.03;5077688;28;20151;-67
2021/08/20 09:10:58;;;;;;;14.90;9.50;;;;;;;18.34;80.41;100814.56;5077816;28;20334;-66
2021/08/20 09:13:29;;;;;;;15.77;10.10;;;;;;;18.18;80.24;100825.72;5069401;28;20072;-67
2021/08/20 09:16:08;;;;;;;11.10;9.25;;;;;;;18.31;79.97;100820.16;5053909;28;20052;-68
2021/08/20 09:18:36;;;;;;;13.60;9.05;;;;;;;18.53;79.56;100822.59;5087712;28;20069;-67
2021/08/20 09:21:04;;;;;;;14.68;8.52;;;;;;;18.60;79.11;100822.91;5093281;28;20195;-72
2021/08/20 09:23:32;;;;;;;12.02;7.78;;;;;;;18.68;78.21;100823.88;5067711;28;20435;-69
2021/08/20 09:26:00;;;;;;;14.95;8.35;;;;;;;18.65;78.24;100829.50;5079026;28;20557;-74
2021/08/20 09:28:32;;;;;;;14.32;7.47;;;;;;;18.82;77.52;100825.38;5074812;28;20039;-70
2021/08/20 09:31:08;;;;;;;15.40;7.50;;;;;;;18.83;77.45;100832.38;5040776;28;20483;-70
2021/08/20 09:33:44;;;;;;;13.20;7.80;;;;;;;18.88;77.70;100827.47;5073823;28;20167;-68
2021/08/20 09:36:14;;;;;;;11.35;7.43;;;;;;;18.72;77.67;100821.81;5079013;28;20127;-67
2021/08/20 09:38:52;;;;;;;11.40;6.65;;;;;;;19.06;76.58;100822.28;5071835;28;20618;-70
2021/08/20 09:41:33;;;;;;;8.88;6.32;;;;;;;19.19;76.11;100816.66;5046301;28;20074;-70
2021/08/20 09:44:05;;;;;;;7.40;6.15;;;;;;;19.20;76.29;100815.69;5068537;28;20155;-75
2021/08/20 09:46:43;;;;;;;9.90;5.72;;;;;;;19.70;73.64;100808.31;5073363;28;20055;-66
2021/08/20 09:49:13;;;;;;;11.57;6.43;;;;;;;19.84;73.04;100817.69;5076890;28;20503;-67
2021/08/20 09:51:47;;;;;;;10.73;6.22;;;;;;;19.95;72.92;100819.34;5073140;28;20059;-67
2021/08/20 09:54:18;;;;;;;10.77;5.80;;;;;;;19.92;72.66;100822.31;5072583;28;20038;-67
2021/08/20 09:56:58;;;;;;;8.25;5.05;;;;;;;19.51;73.80;100821.69;5070921;28;20053;-67
2021/08/20 09:59:29;;;;;;;10.55;4.68;;;;;;;19.61;73.23;100827.03;5070489;28;20371;-66
2021/08/20 10:01:58;;;;;;;6.57;5.22;;;;;;;18.82;76.05;100825.38;5077018;28;20052;-66
2021/08/20 10:04:26;;;;;;;14.90;5.28;;;;;;;19.24;74.42;100825.09;5087524;28;20055;-68
2021/08/20 10:06:54;;;;;;;7.38;4.63;;;;;;;20.15;70.35;100815.59;5073134;28;20546;-67
2021/08/20 10:09:22;;;;;;;7.30;3.78;;;;;;;20.45;68.39;100806.44;5072917;28;20078;-67
2021/08/20 10:11:53;;;;;;;5.70;3.90;;;;;;;21.07;66.96;100800.38;5056182;28;20249;-67
2021/08/20 10:14:23;;;;;;;4.68;3.28;;;;;;;21.28;64.79;100798.22;5069090;28;20060;-67
2021/08/20 10:16:50;;;;;;;4.15;3.28;;;;;;;21.23;65.40;100812.06;5072721;28;20056;-66
2021/08/20 10:19:18;;;;;;;6.72;3.83;;;;;;;21.82;62.80;100807.00;5075891;28;20143;-68
2021/08/20 10:21:45;;;;;;;4.38;3.13;;;;;;;21.13;64.83;100802.47;5078671;28;20402;-66
2021/08/20 10:24:13;;;;;;;2.58;2.33;;;;;;;22.04;63.40;100815.47;5082942;28;20052;-67
2021/08/20 10:26:44;;;;;;;4.70;3.28;;;;;;;22.68;60.63;100819.44;5051921;28;20071;-67
2021/08/20 10:29:12;;;;;;;8.48;4.00;;;;;;;22.68;59.33;100814.06;5077017;28;20567;-66
2021/08/20 10:31:42;;;;;;;5.65;2.92;;;;;;;22.95;58.63;100821.00;5070931;28;20056;-65
2021/08/20 10:34:31;;;;;;;8.40;3.30;;;;;;;22.29;61.26;100824.50;5076812;28;20454;-65
2021/08/20 10:37:12;;;;;;;7.05;3.85;;;;;;;22.02;61.17;100822.81;5072526;28;20083;-68
2021/08/20 10:39:48;;;;;;;10.48;3.55;;;;;;;22.41;59.94;100826.72;5084760;28;20040;-67
2021/08/20 10:42:16;;;;;;;;;;;;;;;22.69;58.90;100819.25;5075957;28;20251;-68
2021/08/20 10:44:48;;;;;;;5.65;4.20;;;;;;;23.23;56.48;100825.06;5085551;28;19926;-66
2021/08/20 10:47:21;;;;;;;6.63;4.10;;;;;;;22.52;58.51;100814.88;5075624;28;20140;-65
2021/08/20 10:49:49;;;;;;;8.30;3.72;;;;;;;21.29;62.73;100821.31;5071306;28;20042;-66
2021/08/20 10:52:25;;;;;;;10.70;3.45;;;;;;;21.75;61.97;100816.69;5072989;28;20079;-66
2021/08/20 10:54:55;;;;;;;4.10;3.30;;;;;;;22.26;60.41;100817.63;5054403;28;20075;-67
2021/08/20 10:57:34;;;;;;;8.30;4.28;;;;;;;22.27;59.74;100810.41;5071042;28;20147;-66
2021/08/20 11:00:07;;;;;;;7.25;4.47;;;;;;;22.06;58.84;100811.63;5074449;28;20083;-67
2021/08/20 11:02:38;;;;;;;7.63;4.75;;;;;;;22.28;58.83;100806.72;5093561;22;20106;31
2021/08/20 11:05:14;;;;;;;15.63;5.20;;;;;;;21.83;58.20;100810.50;5007079;28;20129;-67
2021/08/20 11:07:41;;;;;;;7.47;4.22;;;;;;;22.01;58.58;100816.63;4997980;28;20046;-65
2021/08/20 11:10:09;;;;;;;5.88;3.85;;;;;;;22.85;56.35;100812.25;4987595;28;20264;-66
2021/08/20 11:12:47;;;;;;;6.70;4.25;;;;;;;22.77;56.15;100812.22;4982338;28;20058;-67
2021/08/20 11:15:17;;;;;;;5.43;4.60;;;;;;;23.61;54.22;100813.78;4981493;28;20100;-64
2021/08/20 11:17:50;;;;;;;5.53;4.22;;;;;;;23.93;52.72;100812.91;4982447;28;20133;-66
2021/08/20 11:20:21;;;;;;;6.18;3.95;;;;;;;23.78;52.45;100823.53;4979782;28;20152;-67